sensor_id;sensor_type;location;lat;lon;timestamp;P1;durP1;ratioP1;P2;durP2;ratioP2
53036;SDS011;38924;52.134;4.666;2023-06-22T00:01:09;35.63;;;27.75;;
53036;SDS011;38924;52.134;4.666;2023-06-22T00:03:35;29.60;;;25.98;;
53036;SDS011;38924;52.134;4.666;2023-06-22T00:06:01;28.85;;;25.77;;
53036;SDS011;38924;52.134;4.666;2023-06-22T00:08:26;31.27;;;27.95;;
53036;SDS011;38924;52.134;4.666;2023-06-22T00:10:52;32.22;;;28.75;;
53036;SDS011;38924;52.134;4.666;2023-06-22T00:13:17;26.60;;;24.00;;
53036;SDS011;38924;52.134;4.666;2023-06-22T00:15:43;28.23;;;24.48;;
53036;SDS011;38924;52.134;4.666;2023-06-22T00:18:09;30.40;;;26.80;;
53036;SDS011;38924;52.134;4.666;2023-06-22T00:20:35;27.88;;;25.13;;
53036;SDS011;38924;52.134;4.666;2023-06-22T00:23:04;29.55;;;26.45;;
53036;SDS011;38924;52.134;4.666;2023-06-22T00:25:36;35.05;;;25.52;;
53036;SDS011;38924;52.134;4.666;2023-06-22T00:28:02;30.13;;;27.02;;
53036;SDS011;38924;52.134;4.666;2023-06-22T00:30:31;32.45;;;26.45;;
53036;SDS011;38924;52.134;4.666;2023-06-22T00:32:57;28.77;;;25.45;;
53036;SDS011;38924;52.134;4.666;2023-06-22T00:35:24;27.05;;;24.35;;
53036;SDS011;38924;52.134;4.666;2023-06-22T00:37:57;28.60;;;25.73;;
53036;SDS011;38924;52.134;4.666;2023-06-22T00:40:26;29.75;;;26.73;;
53036;SDS011;38924;52.134;4.666;2023-06-22T00:42:52;31.75;;;28.35;;
53036;SDS011;38924;52.134;4.666;2023-06-22T00:45:18;31.92;;;27.80;;
53036;SDS011;38924;52.134;4.666;2023-06-22T00:47:43;30.88;;;27.60;;
53036;SDS011;38924;52.134;4.666;2023-06-22T00:50:09;33.03;;;28.85;;
53036;SDS011;38924;52.134;4.666;2023-06-22T00:52:41;32.97;;;29.50;;
53036;SDS011;38924;52.134;4.666;2023-06-22T00:55:10;31.77;;;28.48;;
53036;SDS011;38924;52.134;4.666;2023-06-22T00:57:35;34.00;;;29.98;;
53036;SDS011;38924;52.134;4.666;2023-06-22T01:00:02;33.25;;;29.88;;
53036;SDS011;38924;52.134;4.666;2023-06-22T01:02:32;35.22;;;29.95;;
53036;SDS011;38924;52.134;4.666;2023-06-22T01:04:58;33.00;;;27.23;;
53036;SDS011;38924;52.134;4.666;2023-06-22T01:07:31;31.25;;;27.42;;
53036;SDS011;38924;52.134;4.666;2023-06-22T01:12:45;40.80;;;33.00;;
53036;SDS011;38924;52.134;4.666;2023-06-22T01:15:15;38.90;;;33.53;;
53036;SDS011;38924;52.134;4.666;2023-06-22T01:17:45;39.28;;;33.28;;
53036;SDS011;38924;52.134;4.666;2023-06-22T01:20:13;42.63;;;34.20;;
53036;SDS011;38924;52.134;4.666;2023-06-22T01:25:28;41.25;;;33.45;;
53036;SDS011;38924;52.134;4.666;2023-06-22T01:28:03;42.50;;;33.97;;
53036;SDS011;38924;52.134;4.666;2023-06-22T01:30:33;43.20;;;33.10;;
53036;SDS011;38924;52.134;4.666;2023-06-22T01:33:04;45.80;;;35.97;;
53036;SDS011;38924;52.134;4.666;2023-06-22T01:35:32;41.03;;;34.25;;
53036;SDS011;38924;52.134;4.666;2023-06-22T01:38:00;37.72;;;32.80;;
53036;SDS011;38924;52.134;4.666;2023-06-22T01:40:26;43.58;;;34.67;;
53036;SDS011;38924;52.134;4.666;2023-06-22T01:42:53;44.13;;;34.92;;
53036;SDS011;38924;52.134;4.666;2023-06-22T01:45:19;40.05;;;34.60;;
53036;SDS011;38924;52.134;4.666;2023-06-22T01:47:45;38.92;;;32.67;;
53036;SDS011;38924;52.134;4.666;2023-06-22T01:50:11;41.15;;;33.92;;
53036;SDS011;38924;52.134;4.666;2023-06-22T01:52:37;37.85;;;32.97;;
53036;SDS011;38924;52.134;4.666;2023-06-22T01:55:03;48.08;;;35.13;;
53036;SDS011;38924;52.134;4.666;2023-06-22T01:57:30;47.58;;;37.20;;
53036;SDS011;38924;52.134;4.666;2023-06-22T02:00:00;42.85;;;36.53;;
53036;SDS011;38924;52.134;4.666;2023-06-22T02:02:27;46.05;;;34.63;;
53036;SDS011;38924;52.134;4.666;2023-06-22T02:05:07;44.35;;;34.33;;
53036;SDS011;38924;52.134;4.666;2023-06-22T02:07:41;41.42;;;32.13;;
53036;SDS011;38924;52.134;4.666;2023-06-22T02:10:09;43.63;;;33.92;;
53036;SDS011;38924;52.134;4.666;2023-06-22T02:12:37;36.38;;;32.10;;
53036;SDS011;38924;52.134;4.666;2023-06-22T02:15:04;41.20;;;33.55;;
53036;SDS011;38924;52.134;4.666;2023-06-22T02:17:30;43.03;;;33.40;;
53036;SDS011;38924;52.134;4.666;2023-06-22T02:20:00;43.33;;;33.38;;
53036;SDS011;38924;52.134;4.666;2023-06-22T02:22:26;39.95;;;34.03;;
53036;SDS011;38924;52.134;4.666;2023-06-22T02:24:52;43.78;;;35.65;;
53036;SDS011;38924;52.134;4.666;2023-06-22T02:27:19;44.42;;;33.58;;
53036;SDS011;38924;52.134;4.666;2023-06-22T02:29:44;40.28;;;33.00;;
53036;SDS011;38924;52.134;4.666;2023-06-22T02:32:13;43.20;;;34.75;;
53036;SDS011;38924;52.134;4.666;2023-06-22T02:34:38;42.67;;;33.75;;
53036;SDS011;38924;52.134;4.666;2023-06-22T02:37:04;47.17;;;35.33;;
53036;SDS011;38924;52.134;4.666;2023-06-22T02:39:30;41.38;;;32.15;;
53036;SDS011;38924;52.134;4.666;2023-06-22T02:41:56;41.22;;;33.95;;
53036;SDS011;38924;52.134;4.666;2023-06-22T02:44:22;43.88;;;34.47;;
53036;SDS011;38924;52.134;4.666;2023-06-22T02:46:48;45.78;;;35.10;;
53036;SDS011;38924;52.134;4.666;2023-06-22T02:49:15;54.13;;;40.75;;
53036;SDS011;38924;52.134;4.666;2023-06-22T02:51:42;43.30;;;35.55;;
53036;SDS011;38924;52.134;4.666;2023-06-22T02:54:08;43.42;;;35.70;;
53036;SDS011;38924;52.134;4.666;2023-06-22T02:56:34;49.33;;;37.20;;
53036;SDS011;38924;52.134;4.666;2023-06-22T02:59:02;47.80;;;36.15;;
53036;SDS011;38924;52.134;4.666;2023-06-22T03:01:33;47.58;;;36.67;;
53036;SDS011;38924;52.134;4.666;2023-06-22T03:04:07;52.10;;;38.47;;
53036;SDS011;38924;52.134;4.666;2023-06-22T03:06:33;44.45;;;35.53;;
53036;SDS011;38924;52.134;4.666;2023-06-22T03:08:59;45.15;;;35.22;;
53036;SDS011;38924;52.134;4.666;2023-06-22T03:11:25;55.60;;;41.05;;
53036;SDS011;38924;52.134;4.666;2023-06-22T03:13:52;47.88;;;37.67;;
53036;SDS011;38924;52.134;4.666;2023-06-22T03:16:18;45.78;;;35.78;;
53036;SDS011;38924;52.134;4.666;2023-06-22T03:18:44;52.47;;;40.40;;
53036;SDS011;38924;52.134;4.666;2023-06-22T03:21:12;47.88;;;37.00;;
53036;SDS011;38924;52.134;4.666;2023-06-22T03:23:38;51.05;;;38.75;;
53036;SDS011;38924;52.134;4.666;2023-06-22T03:26:03;53.42;;;40.33;;
53036;SDS011;38924;52.134;4.666;2023-06-22T03:28:29;50.45;;;38.90;;
53036;SDS011;38924;52.134;4.666;2023-06-22T03:30:59;53.53;;;39.95;;
53036;SDS011;38924;52.134;4.666;2023-06-22T03:33:24;57.30;;;41.92;;
53036;SDS011;38924;52.134;4.666;2023-06-22T03:35:50;55.75;;;40.60;;
53036;SDS011;38924;52.134;4.666;2023-06-22T03:38:16;53.55;;;40.15;;
53036;SDS011;38924;52.134;4.666;2023-06-22T03:40:42;52.90;;;39.45;;
53036;SDS011;38924;52.134;4.666;2023-06-22T03:43:08;52.60;;;41.92;;
53036;SDS011;38924;52.134;4.666;2023-06-22T03:45:35;47.80;;;36.72;;
53036;SDS011;38924;52.134;4.666;2023-06-22T03:48:00;51.30;;;38.63;;
53036;SDS011;38924;52.134;4.666;2023-06-22T03:50:27;60.08;;;39.97;;
53036;SDS011;38924;52.134;4.666;2023-06-22T03:52:53;49.00;;;38.17;;
53036;SDS011;38924;52.134;4.666;2023-06-22T03:55:22;55.05;;;41.83;;
53036;SDS011;38924;52.134;4.666;2023-06-22T03:57:48;54.55;;;40.40;;
53036;SDS011;38924;52.134;4.666;2023-06-22T04:00:14;52.90;;;41.35;;
53036;SDS011;38924;52.134;4.666;2023-06-22T04:02:44;53.22;;;40.55;;
53036;SDS011;38924;52.134;4.666;2023-06-22T04:05:09;54.13;;;40.30;;
53036;SDS011;38924;52.134;4.666;2023-06-22T04:07:35;49.13;;;37.45;;
53036;SDS011;38924;52.134;4.666;2023-06-22T04:10:05;44.53;;;35.45;;
53036;SDS011;38924;52.134;4.666;2023-06-22T04:12:31;57.33;;;36.80;;
53036;SDS011;38924;52.134;4.666;2023-06-22T04:14:56;51.88;;;39.22;;
53036;SDS011;38924;52.134;4.666;2023-06-22T04:17:22;47.90;;;37.70;;
53036;SDS011;38924;52.134;4.666;2023-06-22T04:19:56;45.87;;;36.00;;
53036;SDS011;38924;52.134;4.666;2023-06-22T04:22:22;44.58;;;37.25;;
53036;SDS011;38924;52.134;4.666;2023-06-22T04:24:47;42.63;;;34.88;;
53036;SDS011;38924;52.134;4.666;2023-06-22T04:27:13;43.45;;;36.67;;
53036;SDS011;38924;52.134;4.666;2023-06-22T04:29:39;47.28;;;37.30;;
53036;SDS011;38924;52.134;4.666;2023-06-22T04:32:16;41.10;;;33.28;;
53036;SDS011;38924;52.134;4.666;2023-06-22T04:34:42;42.55;;;34.95;;
53036;SDS011;38924;52.134;4.666;2023-06-22T04:37:14;44.72;;;35.83;;
53036;SDS011;38924;52.134;4.666;2023-06-22T04:39:41;40.58;;;32.75;;
53036;SDS011;38924;52.134;4.666;2023-06-22T04:42:07;45.58;;;35.95;;
53036;SDS011;38924;52.134;4.666;2023-06-22T04:44:33;44.38;;;35.80;;
53036;SDS011;38924;52.134;4.666;2023-06-22T04:47:01;41.78;;;32.30;;
53036;SDS011;38924;52.134;4.666;2023-06-22T04:49:29;39.50;;;32.70;;
53036;SDS011;38924;52.134;4.666;2023-06-22T04:51:59;37.35;;;30.90;;
53036;SDS011;38924;52.134;4.666;2023-06-22T04:54:25;36.08;;;30.38;;
53036;SDS011;38924;52.134;4.666;2023-06-22T04:56:51;41.08;;;33.28;;
53036;SDS011;38924;52.134;4.666;2023-06-22T04:59:22;37.53;;;32.78;;
53036;SDS011;38924;52.134;4.666;2023-06-22T05:01:48;40.35;;;33.30;;
53036;SDS011;38924;52.134;4.666;2023-06-22T05:04:13;40.42;;;34.88;;
53036;SDS011;38924;52.134;4.666;2023-06-22T05:06:39;36.90;;;30.88;;
53036;SDS011;38924;52.134;4.666;2023-06-22T05:09:05;39.50;;;35.10;;
53036;SDS011;38924;52.134;4.666;2023-06-22T05:11:31;37.60;;;33.47;;
53036;SDS011;38924;52.134;4.666;2023-06-22T05:13:56;39.80;;;35.28;;
53036;SDS011;38924;52.134;4.666;2023-06-22T05:16:22;39.70;;;34.80;;
53036;SDS011;38924;52.134;4.666;2023-06-22T05:18:54;34.95;;;30.83;;
53036;SDS011;38924;52.134;4.666;2023-06-22T05:21:26;39.30;;;35.10;;
53036;SDS011;38924;52.134;4.666;2023-06-22T05:23:53;41.75;;;37.67;;
53036;SDS011;38924;52.134;4.666;2023-06-22T05:26:19;40.20;;;36.17;;
53036;SDS011;38924;52.134;4.666;2023-06-22T05:28:46;41.10;;;34.30;;
53036;SDS011;38924;52.134;4.666;2023-06-22T05:31:29;41.47;;;37.60;;
53036;SDS011;38924;52.134;4.666;2023-06-22T05:33:55;40.00;;;36.13;;
53036;SDS011;38924;52.134;4.666;2023-06-22T05:36:21;43.08;;;38.72;;
53036;SDS011;38924;52.134;4.666;2023-06-22T05:38:50;38.45;;;34.83;;
53036;SDS011;38924;52.134;4.666;2023-06-22T05:41:16;40.03;;;35.88;;
53036;SDS011;38924;52.134;4.666;2023-06-22T05:43:42;38.92;;;35.05;;
53036;SDS011;38924;52.134;4.666;2023-06-22T05:46:08;32.90;;;29.60;;
53036;SDS011;38924;52.134;4.666;2023-06-22T05:48:33;27.95;;;24.40;;
53036;SDS011;38924;52.134;4.666;2023-06-22T05:50:59;31.25;;;28.10;;
53036;SDS011;38924;52.134;4.666;2023-06-22T05:53:25;29.25;;;25.77;;
53036;SDS011;38924;52.134;4.666;2023-06-22T05:55:51;30.58;;;27.50;;
53036;SDS011;38924;52.134;4.666;2023-06-22T05:58:16;34.75;;;31.27;;
53036;SDS011;38924;52.134;4.666;2023-06-22T06:00:43;28.50;;;25.58;;
53036;SDS011;38924;52.134;4.666;2023-06-22T06:03:09;33.47;;;30.08;;
53036;SDS011;38924;52.134;4.666;2023-06-22T06:05:35;30.47;;;27.33;;
53036;SDS011;38924;52.134;4.666;2023-06-22T06:08:01;31.92;;;28.65;;
53036;SDS011;38924;52.134;4.666;2023-06-22T06:10:27;29.20;;;26.08;;
53036;SDS011;38924;52.134;4.666;2023-06-22T06:12:55;33.45;;;29.92;;
53036;SDS011;38924;52.134;4.666;2023-06-22T06:15:20;31.88;;;28.65;;
53036;SDS011;38924;52.134;4.666;2023-06-22T06:17:47;30.95;;;27.75;;
53036;SDS011;38924;52.134;4.666;2023-06-22T06:20:13;28.20;;;25.25;;
53036;SDS011;38924;52.134;4.666;2023-06-22T06:22:39;29.85;;;26.83;;
53036;SDS011;38924;52.134;4.666;2023-06-22T06:25:05;28.65;;;25.35;;
53036;SDS011;38924;52.134;4.666;2023-06-22T06:27:31;30.55;;;26.40;;
53036;SDS011;38924;52.134;4.666;2023-06-22T06:29:57;28.98;;;26.17;;
53036;SDS011;38924;52.134;4.666;2023-06-22T06:32:22;27.15;;;24.25;;
53036;SDS011;38924;52.134;4.666;2023-06-22T06:34:48;28.05;;;25.48;;
53036;SDS011;38924;52.134;4.666;2023-06-22T06:37:14;23.42;;;21.15;;
53036;SDS011;38924;52.134;4.666;2023-06-22T06:39:39;24.85;;;22.38;;
53036;SDS011;38924;52.134;4.666;2023-06-22T06:42:05;26.08;;;23.40;;
53036;SDS011;38924;52.134;4.666;2023-06-22T06:44:31;25.95;;;23.48;;
53036;SDS011;38924;52.134;4.666;2023-06-22T06:46:57;27.48;;;24.23;;
53036;SDS011;38924;52.134;4.666;2023-06-22T06:49:23;25.95;;;23.27;;
53036;SDS011;38924;52.134;4.666;2023-06-22T06:51:48;25.27;;;22.83;;
53036;SDS011;38924;52.134;4.666;2023-06-22T06:54:14;25.70;;;23.20;;
53036;SDS011;38924;52.134;4.666;2023-06-22T06:56:40;22.33;;;20.33;;
53036;SDS011;38924;52.134;4.666;2023-06-22T06:59:05;22.90;;;20.70;;
53036;SDS011;38924;52.134;4.666;2023-06-22T07:01:31;22.27;;;20.20;;
53036;SDS011;38924;52.134;4.666;2023-06-22T07:03:59;21.55;;;19.55;;
53036;SDS011;38924;52.134;4.666;2023-06-22T07:06:25;24.65;;;22.25;;
53036;SDS011;38924;52.134;4.666;2023-06-22T07:08:54;27.75;;;23.25;;
53036;SDS011;38924;52.134;4.666;2023-06-22T07:11:20;24.60;;;22.23;;
53036;SDS011;38924;52.134;4.666;2023-06-22T07:13:46;27.65;;;25.13;;
53036;SDS011;38924;52.134;4.666;2023-06-22T07:16:12;23.75;;;21.70;;
53036;SDS011;38924;52.134;4.666;2023-06-22T07:18:39;27.05;;;24.83;;
53036;SDS011;38924;52.134;4.666;2023-06-22T07:21:07;26.00;;;23.52;;
53036;SDS011;38924;52.134;4.666;2023-06-22T07:23:36;22.40;;;20.23;;
53036;SDS011;38924;52.134;4.666;2023-06-22T07:26:02;24.13;;;21.42;;
53036;SDS011;38924;52.134;4.666;2023-06-22T07:28:27;19.80;;;18.05;;
53036;SDS011;38924;52.134;4.666;2023-06-22T07:30:54;22.08;;;20.17;;
53036;SDS011;38924;52.134;4.666;2023-06-22T07:33:19;19.98;;;18.25;;
53036;SDS011;38924;52.134;4.666;2023-06-22T07:35:45;19.20;;;17.42;;
53036;SDS011;38924;52.134;4.666;2023-06-22T07:38:13;18.73;;;17.33;;
53036;SDS011;38924;52.134;4.666;2023-06-22T07:40:40;20.30;;;18.50;;
53036;SDS011;38924;52.134;4.666;2023-06-22T07:43:07;22.73;;;20.80;;
53036;SDS011;38924;52.134;4.666;2023-06-22T07:45:33;20.17;;;18.67;;
53036;SDS011;38924;52.134;4.666;2023-06-22T07:48:00;18.70;;;17.30;;
53036;SDS011;38924;52.134;4.666;2023-06-22T07:50:26;17.77;;;16.40;;
53036;SDS011;38924;52.134;4.666;2023-06-22T07:52:52;18.58;;;17.17;;
53036;SDS011;38924;52.134;4.666;2023-06-22T07:55:18;16.60;;;15.25;;
53036;SDS011;38924;52.134;4.666;2023-06-22T07:57:44;17.02;;;15.55;;
53036;SDS011;38924;52.134;4.666;2023-06-22T08:00:09;18.77;;;17.10;;
53036;SDS011;38924;52.134;4.666;2023-06-22T08:02:40;17.27;;;15.88;;
53036;SDS011;38924;52.134;4.666;2023-06-22T08:05:07;16.88;;;15.27;;
53036;SDS011;38924;52.134;4.666;2023-06-22T08:07:34;20.50;;;18.85;;
53036;SDS011;38924;52.134;4.666;2023-06-22T08:10:00;18.77;;;17.08;;
53036;SDS011;38924;52.134;4.666;2023-06-22T08:12:26;21.73;;;19.92;;
53036;SDS011;38924;52.134;4.666;2023-06-22T08:14:52;22.30;;;20.30;;
53036;SDS011;38924;52.134;4.666;2023-06-22T08:17:18;26.95;;;24.58;;
53036;SDS011;38924;52.134;4.666;2023-06-22T08:19:43;27.02;;;24.75;;
53036;SDS011;38924;52.134;4.666;2023-06-22T08:22:09;22.33;;;19.63;;
53036;SDS011;38924;52.134;4.666;2023-06-22T08:24:35;28.90;;;26.52;;
53036;SDS011;38924;52.134;4.666;2023-06-22T08:27:00;23.48;;;21.58;;
53036;SDS011;38924;52.134;4.666;2023-06-22T08:29:26;25.85;;;23.23;;
53036;SDS011;38924;52.134;4.666;2023-06-22T08:31:52;26.35;;;23.90;;
53036;SDS011;38924;52.134;4.666;2023-06-22T08:34:18;23.95;;;21.95;;
53036;SDS011;38924;52.134;4.666;2023-06-22T08:36:47;26.52;;;23.98;;
53036;SDS011;38924;52.134;4.666;2023-06-22T08:39:17;24.30;;;22.15;;
53036;SDS011;38924;52.134;4.666;2023-06-22T08:41:43;26.23;;;23.77;;
53036;SDS011;38924;52.134;4.666;2023-06-22T08:44:08;26.05;;;23.80;;
53036;SDS011;38924;52.134;4.666;2023-06-22T08:46:34;22.05;;;20.05;;
53036;SDS011;38924;52.134;4.666;2023-06-22T08:49:03;24.75;;;22.35;;
53036;SDS011;38924;52.134;4.666;2023-06-22T08:51:29;25.73;;;23.60;;
53036;SDS011;38924;52.134;4.666;2023-06-22T08:53:55;26.40;;;23.98;;
53036;SDS011;38924;52.134;4.666;2023-06-22T08:56:21;23.23;;;21.15;;
53036;SDS011;38924;52.134;4.666;2023-06-22T08:58:46;21.55;;;19.73;;
53036;SDS011;38924;52.134;4.666;2023-06-22T09:01:12;24.52;;;22.73;;
53036;SDS011;38924;52.134;4.666;2023-06-22T09:03:38;20.27;;;18.58;;
53036;SDS011;38924;52.134;4.666;2023-06-22T09:06:03;23.33;;;21.42;;
53036;SDS011;38924;52.134;4.666;2023-06-22T09:08:29;22.80;;;20.65;;
53036;SDS011;38924;52.134;4.666;2023-06-22T09:10:55;21.02;;;19.33;;
53036;SDS011;38924;52.134;4.666;2023-06-22T09:13:21;22.40;;;20.45;;
53036;SDS011;38924;52.134;4.666;2023-06-22T09:15:47;22.27;;;20.48;;
53036;SDS011;38924;52.134;4.666;2023-06-22T09:18:13;17.60;;;16.25;;
53036;SDS011;38924;52.134;4.666;2023-06-22T09:20:39;20.13;;;18.42;;
53036;SDS011;38924;52.134;4.666;2023-06-22T09:23:05;20.58;;;18.83;;
53036;SDS011;38924;52.134;4.666;2023-06-22T09:25:31;21.42;;;19.83;;
53036;SDS011;38924;52.134;4.666;2023-06-22T09:27:56;22.42;;;20.33;;
53036;SDS011;38924;52.134;4.666;2023-06-22T09:30:22;20.27;;;18.58;;
53036;SDS011;38924;52.134;4.666;2023-06-22T09:32:48;16.83;;;15.60;;
53036;SDS011;38924;52.134;4.666;2023-06-22T09:35:13;21.02;;;18.92;;
53036;SDS011;38924;52.134;4.666;2023-06-22T09:37:40;18.13;;;16.50;;
53036;SDS011;38924;52.134;4.666;2023-06-22T09:40:06;20.15;;;18.63;;
53036;SDS011;38924;52.134;4.666;2023-06-22T09:42:35;21.73;;;17.67;;
53036;SDS011;38924;52.134;4.666;2023-06-22T09:45:04;19.27;;;17.73;;
53036;SDS011;38924;52.134;4.666;2023-06-22T09:47:30;22.17;;;20.45;;
53036;SDS011;38924;52.134;4.666;2023-06-22T09:49:56;19.88;;;18.25;;
53036;SDS011;38924;52.134;4.666;2023-06-22T09:52:22;19.73;;;17.73;;
53036;SDS011;38924;52.134;4.666;2023-06-22T09:54:47;22.10;;;20.20;;
53036;SDS011;38924;52.134;4.666;2023-06-22T09:57:13;19.20;;;17.77;;
53036;SDS011;38924;52.134;4.666;2023-06-22T09:59:39;22.08;;;20.08;;
53036;SDS011;38924;52.134;4.666;2023-06-22T10:02:07;19.98;;;18.15;;
53036;SDS011;38924;52.134;4.666;2023-06-22T10:04:34;22.77;;;20.85;;
53036;SDS011;38924;52.134;4.666;2023-06-22T10:07:00;22.40;;;20.67;;
53036;SDS011;38924;52.134;4.666;2023-06-22T10:09:26;25.23;;;23.13;;
53036;SDS011;38924;52.134;4.666;2023-06-22T10:11:52;28.08;;;25.83;;
53036;SDS011;38924;52.134;4.666;2023-06-22T10:14:17;24.38;;;22.10;;
53036;SDS011;38924;52.134;4.666;2023-06-22T10:16:43;28.45;;;25.85;;
53036;SDS011;38924;52.134;4.666;2023-06-22T10:19:09;26.50;;;24.05;;
53036;SDS011;38924;52.134;4.666;2023-06-22T10:21:35;29.40;;;27.08;;
53036;SDS011;38924;52.134;4.666;2023-06-22T10:24:01;26.80;;;24.50;;
53036;SDS011;38924;52.134;4.666;2023-06-22T10:26:34;26.70;;;24.48;;
53036;SDS011;38924;52.134;4.666;2023-06-22T10:29:01;26.80;;;23.13;;
53036;SDS011;38924;52.134;4.666;2023-06-22T10:31:27;24.55;;;22.58;;
53036;SDS011;38924;52.134;4.666;2023-06-22T10:33:53;25.13;;;23.08;;
53036;SDS011;38924;52.134;4.666;2023-06-22T10:36:19;26.23;;;23.52;;
53036;SDS011;38924;52.134;4.666;2023-06-22T10:38:45;23.13;;;21.02;;
53036;SDS011;38924;52.134;4.666;2023-06-22T10:41:14;32.42;;;29.70;;
53036;SDS011;38924;52.134;4.666;2023-06-22T10:43:39;29.63;;;27.13;;
53036;SDS011;38924;52.134;4.666;2023-06-22T10:46:06;29.40;;;26.60;;
53036;SDS011;38924;52.134;4.666;2023-06-22T10:48:32;30.35;;;27.40;;
53036;SDS011;38924;52.134;4.666;2023-06-22T10:50:57;31.35;;;28.35;;
53036;SDS011;38924;52.134;4.666;2023-06-22T10:53:23;31.48;;;28.85;;
53036;SDS011;38924;52.134;4.666;2023-06-22T10:55:49;28.67;;;26.13;;
53036;SDS011;38924;52.134;4.666;2023-06-22T10:58:15;29.65;;;27.05;;
53036;SDS011;38924;52.134;4.666;2023-06-22T11:00:40;32.25;;;29.55;;
53036;SDS011;38924;52.134;4.666;2023-06-22T11:03:06;31.90;;;29.10;;
53036;SDS011;38924;52.134;4.666;2023-06-22T11:05:32;30.42;;;27.33;;
53036;SDS011;38924;52.134;4.666;2023-06-22T11:07:58;32.33;;;29.13;;
53036;SDS011;38924;52.134;4.666;2023-06-22T11:10:23;32.85;;;29.65;;
53036;SDS011;38924;52.134;4.666;2023-06-22T11:12:49;31.23;;;28.17;;
53036;SDS011;38924;52.134;4.666;2023-06-22T11:15:15;27.13;;;24.45;;
53036;SDS011;38924;52.134;4.666;2023-06-22T11:17:41;33.00;;;29.95;;
53036;SDS011;38924;52.134;4.666;2023-06-22T11:20:06;30.90;;;28.20;;
53036;SDS011;38924;52.134;4.666;2023-06-22T11:22:39;31.23;;;28.42;;
53036;SDS011;38924;52.134;4.666;2023-06-22T11:25:05;38.33;;;34.40;;
53036;SDS011;38924;52.134;4.666;2023-06-22T11:27:31;31.75;;;28.48;;
53036;SDS011;38924;52.134;4.666;2023-06-22T11:29:57;33.10;;;29.20;;
53036;SDS011;38924;52.134;4.666;2023-06-22T11:32:23;31.70;;;28.70;;
53036;SDS011;38924;52.134;4.666;2023-06-22T11:34:49;28.77;;;26.20;;
53036;SDS011;38924;52.134;4.666;2023-06-22T11:37:14;32.75;;;29.48;;
53036;SDS011;38924;52.134;4.666;2023-06-22T11:39:41;31.25;;;28.65;;
53036;SDS011;38924;52.134;4.666;2023-06-22T11:42:07;29.55;;;26.98;;
53036;SDS011;38924;52.134;4.666;2023-06-22T11:44:33;28.65;;;26.15;;
53036;SDS011;38924;52.134;4.666;2023-06-22T11:46:59;32.28;;;29.10;;
53036;SDS011;38924;52.134;4.666;2023-06-22T11:49:26;37.13;;;33.50;;
53036;SDS011;38924;52.134;4.666;2023-06-22T11:51:52;36.72;;;33.05;;
53036;SDS011;38924;52.134;4.666;2023-06-22T11:54:18;36.13;;;33.00;;
53036;SDS011;38924;52.134;4.666;2023-06-22T11:56:43;34.20;;;31.42;;
53036;SDS011;38924;52.134;4.666;2023-06-22T11:59:11;39.47;;;35.67;;
53036;SDS011;38924;52.134;4.666;2023-06-22T12:01:40;39.45;;;35.72;;
53036;SDS011;38924;52.134;4.666;2023-06-22T12:04:05;38.67;;;35.28;;
53036;SDS011;38924;52.134;4.666;2023-06-22T12:06:35;36.85;;;33.17;;
53036;SDS011;38924;52.134;4.666;2023-06-22T12:09:03;33.45;;;30.45;;
53036;SDS011;38924;52.134;4.666;2023-06-22T12:11:30;31.95;;;28.90;;
53036;SDS011;38924;52.134;4.666;2023-06-22T12:13:56;33.60;;;29.50;;
53036;SDS011;38924;52.134;4.666;2023-06-22T12:16:23;33.28;;;29.75;;
53036;SDS011;38924;52.134;4.666;2023-06-22T12:18:49;35.15;;;31.90;;
53036;SDS011;38924;52.134;4.666;2023-06-22T12:21:15;36.10;;;32.80;;
53036;SDS011;38924;52.134;4.666;2023-06-22T12:23:41;40.70;;;36.92;;
53036;SDS011;38924;52.134;4.666;2023-06-22T12:26:07;31.48;;;28.80;;
53036;SDS011;38924;52.134;4.666;2023-06-22T12:28:32;34.85;;;31.25;;
53036;SDS011;38924;52.134;4.666;2023-06-22T12:30:58;34.13;;;30.38;;
53036;SDS011;38924;52.134;4.666;2023-06-22T12:33:24;31.35;;;28.70;;
53036;SDS011;38924;52.134;4.666;2023-06-22T12:35:49;27.45;;;25.05;;
53036;SDS011;38924;52.134;4.666;2023-06-22T12:38:15;34.80;;;31.50;;
53036;SDS011;38924;52.134;4.666;2023-06-22T12:40:41;33.60;;;30.60;;
53036;SDS011;38924;52.134;4.666;2023-06-22T12:43:07;34.88;;;31.60;;
53036;SDS011;38924;52.134;4.666;2023-06-22T12:45:33;30.33;;;27.30;;
53036;SDS011;38924;52.134;4.666;2023-06-22T12:48:00;33.65;;;30.75;;
53036;SDS011;38924;52.134;4.666;2023-06-22T12:50:25;29.83;;;26.73;;
53036;SDS011;38924;52.134;4.666;2023-06-22T12:52:51;32.38;;;29.05;;
53036;SDS011;38924;52.134;4.666;2023-06-22T12:55:17;28.27;;;25.92;;
53036;SDS011;38924;52.134;4.666;2023-06-22T12:57:43;30.33;;;27.67;;
53036;SDS011;38924;52.134;4.666;2023-06-22T13:00:09;30.42;;;27.38;;
53036;SDS011;38924;52.134;4.666;2023-06-22T13:02:35;30.27;;;27.45;;
53036;SDS011;38924;52.134;4.666;2023-06-22T13:05:02;34.40;;;28.05;;
53036;SDS011;38924;52.134;4.666;2023-06-22T13:07:28;32.78;;;28.00;;
53036;SDS011;38924;52.134;4.666;2023-06-22T13:09:54;33.67;;;30.70;;
53036;SDS011;38924;52.134;4.666;2023-06-22T13:12:20;28.17;;;25.63;;
53036;SDS011;38924;52.134;4.666;2023-06-22T13:14:45;35.78;;;32.33;;
53036;SDS011;38924;52.134;4.666;2023-06-22T13:17:12;36.30;;;32.15;;
53036;SDS011;38924;52.134;4.666;2023-06-22T13:19:39;27.15;;;24.73;;
53036;SDS011;38924;52.134;4.666;2023-06-22T13:22:05;30.20;;;27.00;;
53036;SDS011;38924;52.134;4.666;2023-06-22T13:24:31;27.70;;;25.40;;
53036;SDS011;38924;52.134;4.666;2023-06-22T13:26:56;26.10;;;23.80;;
53036;SDS011;38924;52.134;4.666;2023-06-22T13:29:22;28.05;;;25.52;;
53036;SDS011;38924;52.134;4.666;2023-06-22T13:31:48;25.40;;;23.13;;
53036;SDS011;38924;52.134;4.666;2023-06-22T13:34:13;22.55;;;20.50;;
53036;SDS011;38924;52.134;4.666;2023-06-22T13:36:39;26.23;;;24.13;;
53036;SDS011;38924;52.134;4.666;2023-06-22T13:39:05;26.83;;;24.35;;
53036;SDS011;38924;52.134;4.666;2023-06-22T13:41:30;26.35;;;23.63;;
53036;SDS011;38924;52.134;4.666;2023-06-22T13:43:56;27.33;;;24.80;;
53036;SDS011;38924;52.134;4.666;2023-06-22T13:46:22;28.80;;;26.30;;
53036;SDS011;38924;52.134;4.666;2023-06-22T13:48:48;26.10;;;23.45;;
53036;SDS011;38924;52.134;4.666;2023-06-22T13:51:13;28.77;;;25.85;;
53036;SDS011;38924;52.134;4.666;2023-06-22T13:53:39;29.55;;;26.85;;
53036;SDS011;38924;52.134;4.666;2023-06-22T13:56:05;49.03;;;25.60;;
53036;SDS011;38924;52.134;4.666;2023-06-22T13:58:31;34.40;;;28.40;;
53036;SDS011;38924;52.134;4.666;2023-06-22T14:00:56;38.00;;;28.05;;
53036;SDS011;38924;52.134;4.666;2023-06-22T14:03:22;35.33;;;24.77;;
53036;SDS011;38924;52.134;4.666;2023-06-22T14:05:48;29.02;;;26.35;;
53036;SDS011;38924;52.134;4.666;2023-06-22T14:08:14;26.40;;;23.90;;
53036;SDS011;38924;52.134;4.666;2023-06-22T14:10:40;25.90;;;23.27;;
53036;SDS011;38924;52.134;4.666;2023-06-22T14:13:06;27.15;;;24.88;;
53036;SDS011;38924;52.134;4.666;2023-06-22T14:15:31;26.08;;;23.88;;
53036;SDS011;38924;52.134;4.666;2023-06-22T14:17:57;29.73;;;27.35;;
53036;SDS011;38924;52.134;4.666;2023-06-22T14:20:23;24.75;;;22.45;;
53036;SDS011;38924;52.134;4.666;2023-06-22T14:22:51;25.70;;;23.58;;